• Join FlightAware (Why Join?)
  • Login
  • US Flag 
03:04PM EDT


 

Airport Tracker/Info


-or-


 

Live Flight TrackerFlight Track Log ✈ N1253W ✈ 09-Apr-2013 ✈ KOSU - KGCK

Flight Track Log - Related Links

Times and Time Zones

All times are in EDT time to prevent confusion due to time zone crossing. See the N1253W flight status page for this flight to view local times or setup timezone preferences in your user account.

Time Position Orientation Groundspeed Altitude Reporting Facility
EDT Latitude Longitude Course Direction KTS MPH feet Rate Location/Type
06:11AM 40.1214 -83.0383 North 175 201 3,000  Level Indianapolis Center
06:12AM 40.1356 -83.0367 North 166 191 3,600 1,560 Climbing Indianapolis Center
06:13AM 40.1589 -83.0731 310° West 158 182 5,200 1,380 Climbing Indianapolis Center
06:14AM 40.1606 -83.1358 272° West 170 196 6,500 1,380 Climbing Indianapolis Center
06:15AM 40.1539 -83.2047 263° West 189 217 8,100 1,560 Climbing Indianapolis Center
06:16AM 40.1472 -83.2694 262° West 183 211 9,700 1,500 Climbing Indianapolis Center
06:17AM 40.1400 -83.3339 262° West 179 206 11,200 1,440 Climbing Indianapolis Center
06:18AM 40.1331 -83.4014 262° West 184 212 12,700 1,440 Climbing Indianapolis Center
06:19AM 40.1250 -83.4658 261° West 181 208 14,200 1,500 Climbing Indianapolis Center
06:20AM 40.1175 -83.5289 261° West 176 203 15,800 1,440 Climbing Indianapolis Center
06:21AM 40.1114 -83.5942 263° West 179 206 17,200 1,260 Climbing Indianapolis Center
06:22AM 40.1039 -83.6600 262° West 184 212 18,400 1,140 Climbing Indianapolis Center
06:23AM 40.0961 -83.7292 262° West 191 220 19,600 840 Climbing Indianapolis Center
06:24AM 40.0881 -83.8017 262° West 203 234 20,200 840 Climbing Indianapolis Center
06:25AM 40.0792 -83.8772 261° West 208 239 21,400 1,140 Climbing Indianapolis Center
06:26AM 40.0703 -83.9494 261° West 202 232 22,600 1,080 Climbing Indianapolis Center
06:27AM 40.0619 -84.0214 261° West 200 230 23,600 1,020 Climbing Indianapolis Center
06:28AM 40.0531 -84.0917 261° West 197 227 24,700 900 Climbing Indianapolis Center
06:29AM 40.0464 -84.1611 263° West 192 221 25,500 600 Climbing Indianapolis Center
06:30AM 40.0378 -84.2344 261° West 202 232 26,000 240 Climbing Indianapolis Center
06:31AM 40.0269 -84.3131 260° West 218 251 26,000  Level Indianapolis Center
06:32AM 40.0167 -84.3975 261° West 234 269 26,000  Level Indianapolis Center
06:33AM 40.0119 -84.4867 266° West 244 281 26,000  Level Indianapolis Center
06:34AM 40.0061 -84.5764 265° West 246 283 26,000  Level Indianapolis Center
06:35AM 40.0006 -84.6678 265° West 249 287 26,000  Level Indianapolis Center
06:36AM 39.9956 -84.7594 266° West 251 289 26,000  Level Indianapolis Center
06:37AM 39.9903 -84.8511 266° West 252 290 26,000  Level Indianapolis Center
06:38AM 39.9842 -84.9558 266° West 253 291 26,000  Level Indianapolis Center
06:39AM 39.9781 -85.0486 265° West 254 292 26,000  Level Indianapolis Center
06:40AM 39.9722 -85.1408 265° West 253 291 26,000  Level Indianapolis Center
06:41AM 39.9672 -85.2328 266° West 252 290 26,000  Level Indianapolis Center
06:42AM 39.9544 -85.3225 260° West 251 289 26,000 60 Level Indianapolis Center
06:43AM 39.9422 -85.4108 260° West 245 282 26,200 420 Climbing Indianapolis Center
06:44AM 39.9381 -85.4914 266° West 225 259 26,900 720 Climbing Indianapolis Center
06:45AM 39.9322 -85.5697 264° West 216 249 27,700 540 Climbing Indianapolis Center
06:46AM 39.9272 -85.6458 265° West 210 242 28,000 120 Climbing Indianapolis Center
06:47AM 39.9228 -85.7306 266° West 232 267 28,000  Level Indianapolis Center
06:48AM 39.9164 -85.8175 265° West 240 276 28,000  Level Indianapolis Center
06:49AM 39.9103 -85.9075 265° West 247 284 28,000  Level Indianapolis Center
06:50AM 39.9047 -85.9983 265° West 250 288 28,000  Level Indianapolis Center
06:51AM 39.8983 -86.0894 265° West 251 289 28,000  Level Indianapolis Center
06:52AM 39.8917 -86.1814 265° West 254 292 28,000  Level Indianapolis Center
06:53AM 39.8858 -86.2722 265° West 254 292 28,000  Level Indianapolis Center
06:54AM 39.8792 -86.3633 265° West 254 292 28,000  Level Indianapolis Center
06:55AM 39.8725 -86.4556 265° West 256 295 28,000  Level Indianapolis Center
06:56AM 39.8656 -86.5475 264° West 255 293 28,000  Level Indianapolis Center
06:57AM 39.8581 -86.6394 264° West 253 291 28,000  Level Indianapolis Center
06:58AM 39.8511 -86.7317 264° West 255 293 28,000  Level Indianapolis Center
06:59AM 39.8447 -86.8247 265° West 256 295 28,000  Level Indianapolis Center
07:00AM 39.8378 -86.9181 264° West 256 295 28,000  Level Indianapolis Center
07:01AM 39.8294 -87.0111 263° West 257 296 28,000  Level Indianapolis Center
07:02AM 39.8217 -87.1197 265° West 256 295 28,000  Level Indianapolis Center
07:03AM 39.8142 -87.2131 264° West 257 296 28,000  Level Indianapolis Center
07:04AM 39.8067 -87.3069 264° West 259 298 28,000  Level Indianapolis Center
07:05AM 39.8000 -87.3994 265° West 256 295 28,000  Level Indianapolis Center
07:06AM 39.7919 -87.4931 264° West 259 298 28,000  Level Indianapolis Center
07:07AM 39.7853 -87.5867 265° West 260 299 28,000  Level Indianapolis Center
07:08AM 39.7767 -87.6803 263° West 259 298 28,000  Level Indianapolis Center
07:09AM 39.7689 -87.7739 264° West 259 298 28,000  Level Indianapolis Center
07:10AM 39.7600 -87.8678 263° West 260 299 28,000  Level Indianapolis Center
07:11AM 39.7519 -87.9625 264° West 261 300 28,000  Level Indianapolis Center
07:12AM 39.7444 -88.0572 264° West 262 302 28,000  Level Indianapolis Center
07:13AM 39.7369 -88.1517 264° West 261 300 28,000  Level Indianapolis Center
07:14AM 39.7356 -88.1822 267° West 260 299 28,000  Level Kansas City Center
07:15AM 39.7272 -88.2689 263° West 260 299 28,000  Level Kansas City Center
07:16AM 39.7186 -88.3622 263° West 260 299 28,000  Level Kansas City Center
07:17AM 39.7094 -88.4572 263° West 263 303 28,000  Level Kansas City Center
07:18AM 39.7014 -88.5503 264° West 262 302 28,000  Level Kansas City Center
07:19AM 39.6922 -88.6447 263° West 261 300 28,000  Level Kansas City Center
07:20AM 39.6831 -88.7378 263° West 262 302 28,000  Level Kansas City Center
07:21AM 39.6750 -88.8319 264° West 262 302 28,000  Level Kansas City Center
07:22AM 39.6658 -88.9239 263° West 259 298 28,000  Level Kansas City Center
07:23AM 39.6575 -89.0178 263° West 260 299 28,000  Level Kansas City Center
07:24AM 39.6489 -89.1108 263° West 259 298 28,000  Level Kansas City Center
07:25AM 39.6394 -89.2042 263° West 260 299 28,000  Level Kansas City Center
07:26AM 39.6297 -89.3044 263° West 259 298 28,000  Level Kansas City Center
07:27AM 39.6206 -89.3969 263° West 259 298 28,000  Level Kansas City Center
07:28AM 39.6117 -89.4889 263° West 258 297 28,000  Level Kansas City Center
07:29AM 39.6025 -89.5783 262° West 255 293 28,000  Level Kansas City Center
07:30AM 39.5939 -89.6714 263° West 258 297 28,000  Level Kansas City Center
07:31AM 39.5844 -89.7628 262° West 258 297 28,000  Level Kansas City Center
07:32AM 39.5747 -89.8547 262° West 258 297 28,000  Level Kansas City Center
07:33AM 39.5633 -89.9644 262° West 258 297 28,000  Level Kansas City Center
07:34AM 39.5547 -90.0564 263° West 258 297 28,000  Level Kansas City Center
07:35AM 39.5450 -90.1481 262° West 259 298 28,000  Level Kansas City Center
07:36AM 39.5353 -90.2403 262° West 260 299 28,000  Level Kansas City Center
07:37AM 39.5253 -90.3328 262° West 260 299 28,000  Level Kansas City Center
07:38AM 39.5156 -90.4250 262° West 260 299 28,000  Level Kansas City Center
07:39AM 39.5058 -90.5178 262° West 261 300 28,000  Level Kansas City Center
07:40AM 39.4964 -90.6094 262° West 260 299 28,000  Level Kansas City Center
07:41AM 39.4867 -90.7000 262° West 258 297 28,000  Level Kansas City Center
07:42AM 39.4764 -90.7922 262° West 258 297 28,000  Level Kansas City Center
07:43AM 39.4656 -90.8881 262° West 263 303 28,000  Level Kansas City Center
07:44AM 39.4550 -90.9803 262° West 263 303 28,000  Level Kansas City Center
07:45AM 39.4447 -91.0719 262° West 260 299 28,000  Level Kansas City Center
07:46AM 39.4331 -91.1811 262° West 258 297 28,000  Level Kansas City Center
07:47AM 39.4219 -91.2736 261° West 260 299 28,000  Level Kansas City Center
07:48AM 39.4106 -91.3667 261° West 261 300 28,000  Level Kansas City Center
07:49AM 39.4000 -91.4578 262° West 260 299 28,000  Level Kansas City Center
07:50AM 39.3900 -91.5506 262° West 260 299 28,000  Level Kansas City Center
07:51AM 39.3781 -91.6442 261° West 264 304 28,000  Level Kansas City Center
07:52AM 39.3686 -91.7294 262° West 263 303 28,000  Level Kansas City Center
07:53AM 39.3544 -91.8419 261° West 266 306 28,000  Level Kansas City Center
07:54AM 39.3439 -91.9347 262° West 264 304 28,000  Level Kansas City Center
07:55AM 39.3319 -92.0286 261° West 265 305 28,000  Level Kansas City Center
07:56AM 39.3222 -92.1186 262° West 259 298 28,000  Level Kansas City Center
07:57AM 39.3100 -92.2131 261° West 263 303 28,000  Level Kansas City Center
07:58AM 39.2989 -92.3072 261° West 266 306 28,000  Level Kansas City Center
07:59AM 39.2856 -92.4039 260° West 269 310 28,000  Level Kansas City Center
08:00AM 39.2742 -92.4972 261° West 269 310 28,000  Level Kansas City Center
08:01AM 39.2625 -92.5908 261° West 268 308 28,000  Level Kansas City Center
08:02AM 39.2517 -92.6833 261° West 264 304 28,000  Level Kansas City Center
08:03AM 39.2358 -92.7942 260° West 264 304 28,000  Level Kansas City Center
08:04AM 39.2247 -92.8864 261° West 263 303 28,000  Level Kansas City Center
08:05AM 39.2125 -92.9792 260° West 264 304 28,000  Level Kansas City Center
08:06AM 39.2003 -93.0708 260° West 262 302 28,000  Level Kansas City Center
08:08AM 39.1886 -93.1636 261° West 263 303 28,000  Level Kansas City Center
08:09AM 39.1764 -93.2547 260° West 262 302 28,000  Level Kansas City Center
08:10AM 39.1639 -93.3489 260° West 264 304 28,000  Level Kansas City Center
08:11AM 39.1500 -93.4442 259° West 265 305 28,000  Level Kansas City Center
08:12AM 39.1378 -93.5481 261° West 264 304 28,000  Level Kansas City Center
08:13AM 39.1256 -93.6372 260° West 263 303 28,000  Level Kansas City Center
08:14AM 39.1125 -93.7278 260° West 268 308 28,000  Level Kansas City Center
08:15AM 39.0983 -93.8319 260° West 264 304 28,000  Level Kansas City Center
08:16AM 39.0858 -93.9228 260° West 268 308 28,000  Level Kansas City Center
08:17AM 39.0728 -94.0125 259° West 266 306 28,000  Level Kansas City Center
08:18AM 39.0583 -94.1167 260° West 266 306 28,000  Level Kansas City Center
08:19AM 39.0456 -94.2064 260° West 267 307 28,000  Level Kansas City Center
08:20AM 39.0306 -94.3131 260° West 271 312 28,000  Level Kansas City Center
08:21AM 39.0178 -94.4044 260° West 271 312 28,000  Level Kansas City Center
08:22AM 39.0042 -94.4953 259° West 270 311 28,000  Level Kansas City Center
08:23AM 38.9883 -94.6022 259° West 272 313 28,000  Level Kansas City Center
08:24AM 38.9753 -94.6933 260° West 271 312 28,000  Level Kansas City Center
08:25AM 38.9622 -94.7850 260° West 272 313 28,000  Level Kansas City Center
08:26AM 38.9461 -94.8908 259° West 270 311 28,000  Level Kansas City Center
08:27AM 38.9322 -94.9811 259° West 269 310 28,000  Level Kansas City Center
08:28AM 38.9192 -95.0719 260° West 269 310 28,000  Level Kansas City Center
08:29AM 38.9036 -95.1792 259° West 272 313 28,000  Level Kansas City Center
08:30AM 38.8894 -95.2697 259° West 270 311 28,000  Level Kansas City Center
08:31AM 38.8753 -95.3608 259° West 270 311 28,000  Level Kansas City Center
08:32AM 38.8592 -95.4669 259° West 270 311 28,000  Level Kansas City Center
08:33AM 38.8458 -95.5581 259° West 270 311 28,000  Level Kansas City Center
08:34AM 38.8300 -95.6644 259° West 270 311 28,000  Level Kansas City Center
08:35AM 38.8150 -95.7536 258° West 269 310 28,000  Level Kansas City Center
08:36AM 38.8011 -95.8450 259° West 273 314 28,000  Level Kansas City Center
08:37AM 38.7858 -95.9489 259° West 267 307 28,000  Level Kansas City Center
08:38AM 38.7708 -96.0389 258° West 269 310 28,000  Level Kansas City Center
08:39AM 38.7572 -96.1300 259° West 270 311 28,000  Level Kansas City Center
08:40AM 38.7397 -96.2339 258° West 269 310 28,000  Level Kansas City Center
08:41AM 38.7256 -96.3261 259° West 272 313 28,000  Level Kansas City Center
08:42AM 38.7078 -96.4311 258° West 270 311 28,000  Level Kansas City Center
08:43AM 38.6936 -96.5217 259° West 269 310 28,000  Level Kansas City Center
08:44AM 38.6794 -96.6125 259° West 272 313 28,000  Level Kansas City Center
08:45AM 38.6619 -96.7181 258° West 271 312 28,000  Level Kansas City Center
08:46AM 38.6464 -96.8161 259° West 269 310 28,000  Level Kansas City Center
08:47AM 38.6319 -96.8986 257° West 270 311 28,000  Level Kansas City Center
08:48AM 38.6169 -96.9914 258° West 268 308 28,000  Level Kansas City Center
08:49AM 38.6014 -97.0847 258° West 268 308 28,000  Level Kansas City Center
08:50AM 38.5825 -97.1967 258° West 269 310 28,000  Level Kansas City Center
08:51AM 38.5667 -97.2897 258° West 269 310 28,000  Level Kansas City Center
08:52AM 38.5506 -97.3828 258° West 269 310 28,000  Level Kansas City Center
08:53AM 38.5350 -97.4753 258° West 268 308 28,000  Level Kansas City Center
08:54AM 38.5183 -97.5689 257° West 271 312 28,000  Level Kansas City Center
08:55AM 38.5025 -97.6631 258° West 272 313 28,000  Level Kansas City Center
08:57AM 38.4861 -97.7564 257° West 272 313 28,000  Level Kansas City Center
08:58AM 38.4700 -97.8500 258° West 272 313 28,000  Level Kansas City Center
08:59AM 38.4506 -97.9581 257° West 264 304 28,000  Level Kansas City Center
09:00AM 38.4353 -98.0486 258° West 263 303 28,000  Level Kansas City Center
09:01AM 38.4192 -98.1386 257° West 263 303 28,000  Level Kansas City Center
09:02AM 38.4039 -98.2283 258° West 260 299 28,000  Level Kansas City Center
09:03AM 38.3878 -98.3186 257° West 263 303 28,000 -120 Level Kansas City Center
09:04AM 38.3675 -98.4278 257° West 264 304 27,800 -600 Descending Kansas City Center
09:05AM 38.3503 -98.5247 257° West 280 322 26,800 -1,080 Descending Kansas City Center
09:06AM 38.3322 -98.6239 257° West 287 330 25,600 -1,080 Descending Kansas City Center
09:07AM 38.3131 -98.7231 256° West 289 333 24,600 -1,080 Descending Kansas City Center
09:08AM 38.2961 -98.8236 258° West 292 336 23,500 -1,140 Descending Kansas City Center
09:09AM 38.2767 -98.9258 256° West 296 341 22,300 -1,140 Descending Kansas City Center
09:10AM 38.2567 -99.0319 257° West 306 352 21,200 -1,200 Descending Kansas City Center
09:11AM 38.2336 -99.1575 257° West 307 353 19,900 -1,320 Descending Kansas City Center
09:12AM 38.2142 -99.2636 257° West 309 356 18,500 -1,620 Descending Kansas City Center
09:13AM 38.1942 -99.3661 256° West 302 348 16,700 -1,680 Descending Kansas City Center
09:14AM 38.1747 -99.4653 256° West 292 336 15,200 -1,500 Descending Kansas City Center
09:15AM 38.1556 -99.5675 257° West 280 322 13,600 -1,500 Descending Kansas City Center
09:16AM 38.1344 -99.6575 253° West 277 319 12,200 -1,560 Descending Kansas City Center
09:17AM 38.0972 -99.7481 242° Southwest 261 300 10,500 -1,560 Descending Kansas City Center
09:18AM 38.0783 -99.8258 253° West 246 283 9,100 -1,560 Descending Kansas City Center
09:19AM 38.0536 -99.9119 250° West 235 270 7,400 -1,500 Descending Kansas City Center
09:20AM 38.0317 -99.9844 249° West 233 268 6,000 -720 Descending Kansas City Center
09:21AM 38.0094 -100.0675 251° West 227 261 5,900 -60 Descending Kansas City Center
09:22AM 37.9917 -100.1314 251° West 213 245 5,900  Level Kansas City Center
09:23AM 37.9739 -100.1964 251° West 206 237 6,000  Climbing Kansas City Center
09:24AM 37.9528 -100.2736 251° West 207 238 6,000  Level Kansas City Center
09:25AM 37.9333 -100.3403 250° West 209 241 6,000 -480 Level Kansas City Center
09:26AM 37.9114 -100.4167 250° West 208 239 5,100 -480 Descending Kansas City Center
09:27AM 37.8853 -100.4739 240° Southwest 207 238 5,000  Descending Kansas City Center
09:28AM 37.8200 -100.4939 194° South 218 251 5,100  Climbing Kansas City Center
09:29AM 37.7717 -100.5381 216° Southwest 227 261 5,000 -60 Descending Kansas City Center
09:30AM 37.7442 -100.6019 241° Southwest 221 254 5,000  Level Kansas City Center
09:31AM 37.7225 -100.6728 249° West 201 231 5,100  Climbing Kansas City Center
09:32AM 37.7383 -100.7167 295° West 172 198 5,000 -60 Descending Kansas City Center
09:34AM 37.7808 -100.7256 351° North 147 169 5,000 -120 Level Kansas City Center
09:35AM 37.8153 -100.7236 North 134 154 4,800 -360 Descending Kansas City Center
09:36AM 37.8539 -100.7242 359° North 128 147 4,300 -480 Descending Kansas City Center
09:37AM 37.8775 -100.7239 North 101 116 3,800 -540 Descending Kansas City Center
09:38AM 37.9056 -100.7236 360° North 92 106 3,300 -540 Descending Kansas City Center